VLG56HJ LIPZ-LEAL
Flight info
| Callsign | VLG56HJ |
|---|---|
| Flight time | N/A |
| Altitude | 37000 |
| Route | CHI DCT BEROK DCT TALEP DCT OKITI DCT GERVU |
| Aircraft | A21N/M-SDE2E3FGHIRWXY/LB1 |
Departure
| Time | 2026-05-04 08:20 |
|---|---|
| Airport | Venice Marco Polo Airport (LIPZ) |
Arrival
| Time | N/A |
|---|---|
| Airport | Alicante-Elche Miguel Hernández Airport (LEAL) |
| Time | Latitude | Longitude | Altitude | Speed | Heading |
|---|---|---|---|---|---|
| 2026-05-04 08:10 | 45.50546 | 12.34224 | 19 ft | 0 kts | 267° |
| 2026-05-04 08:13 | 45.50548 | 12.34256 | 21 ft | 4 kts | 265° |
| 2026-05-04 08:13 | 45.50550 | 12.34292 | 22 ft | 2 kts | 265° |
| 2026-05-04 08:13 | 45.50556 | 12.34325 | 21 ft | 4 kts | 221° |
| 2026-05-04 08:13 | 45.50578 | 12.34336 | 20 ft | 4 kts | 178° |
| 2026-05-04 08:14 | 45.50589 | 12.34335 | 21 ft | 1 kts | 176° |
| 2026-05-04 08:14 | 45.50590 | 12.34335 | 21 ft | 0 kts | 176° |
| 2026-05-04 08:16 | 45.50577 | 12.34336 | 20 ft | 8 kts | 176° |
| 2026-05-04 08:17 | 45.50468 | 12.34345 | 20 ft | 20 kts | 176° |
| 2026-05-04 08:17 | 45.50318 | 12.34343 | 23 ft | 23 kts | 193° |
| 2026-05-04 08:17 | 45.50170 | 12.34196 | 20 ft | 29 kts | 221° |
| 2026-05-04 08:17 | 45.50007 | 12.33984 | 16 ft | 32 kts | 222° |
| 2026-05-04 08:19 | 45.49561 | 12.33552 | 20 ft | 12 kts | 124° |
| 2026-05-04 08:19 | 45.49595 | 12.33654 | 18 ft | 16 kts | 44° |
| 2026-05-04 08:20 | 45.49885 | 12.34031 | 15 ft | 101 kts | 41° |
| 2026-05-04 08:20 | 45.50620 | 12.34966 | 119 ft | 169 kts | 43° |
| 2026-05-04 08:20 | 45.51456 | 12.36084 | 1136 ft | 160 kts | 48° |
| 2026-05-04 08:20 | 45.52238 | 12.37301 | 2146 ft | 179 kts | 49° |
| 2026-05-04 08:21 | 45.53100 | 12.38745 | 2998 ft | 200 kts | 56° |
| 2026-05-04 08:21 | 45.53602 | 12.40654 | 3963 ft | 214 kts | 88° |
| 2026-05-04 08:21 | 45.53518 | 12.42782 | 5258 ft | 215 kts | 99° |
| 2026-05-04 08:21 | 45.53290 | 12.44897 | 6665 ft | 216 kts | 101° |
| 2026-05-04 08:22 | 45.53044 | 12.47034 | 7865 ft | 221 kts | 101° |
| 2026-05-04 08:22 | 45.52798 | 12.49233 | 9047 ft | 227 kts | 101° |
| 2026-05-04 08:24 | 45.41393 | 12.51972 | 14928 ft | 339 kts | 191° |
| 2026-05-04 08:24 | 45.39045 | 12.51386 | 15981 ft | 346 kts | 190° |
| 2026-05-04 08:24 | 45.36648 | 12.50802 | 17036 ft | 353 kts | 190° |
| 2026-05-04 08:24 | 45.34218 | 12.50131 | 18071 ft | 359 kts | 195° |
| 2026-05-04 08:25 | 45.31885 | 12.48797 | 18984 ft | 365 kts | 207° |
| 2026-05-04 08:25 | 45.29654 | 12.47017 | 19840 ft | 371 kts | 211° |
| 2026-05-04 08:25 | 45.27417 | 12.45126 | 20704 ft | 377 kts | 211° |
| 2026-05-04 08:25 | 45.25151 | 12.43204 | 21567 ft | 382 kts | 212° |
| 2026-05-04 08:26 | 45.22851 | 12.41265 | 22443 ft | 387 kts | 212° |